Racecast

Sariyah Vessels-Smith

East End Lightning T&F Youth Development (VA) · 2 · Compare head to head

Athlete rating 110.6 2026 TF season
Best race 110.8 TF
Races 36
Seasons 1 2026
Rating scale ?
Speed rating — all races

Track & Field

TF speed rating

2026 TF 110.2

East End Lightning T&F Youth Development (VA) · Grade 2

Date Meet Event Result Place Rating Difficulty PR/SR Flags
2026-05-30 Va Beach Flames Invite 400m 1:23.43 11th · 2nd on team -0.023
2026-05-30 Va Beach Flames Invite 200m 35.37 10th · 3rd on team -0.023
2026-05-30 Va Beach Flames Invite 800m 3:24.36 8th · 2nd on team 110.8 -0.023 ★PR ★R SR RSR
2026-05-24 HR Hurricanes CAT 5 Invite lj NM -0.035
2026-05-24 HR Hurricanes CAT 5 Invite 200m 33.74 5th · 2nd on team -0.035
2026-05-16 Lightning Relays 100m 16.01 11th · 2nd on team -0.042 ★PR SR
2026-05-16 Lightning Relays 400m 1:28.47 15th · 2nd on team -0.042
2026-05-16 Lightning Relays 200m 34.35 12th · 2nd on team -0.042
2026-05-09 VA "Legends" T & F Youth Invite lj 2.58m -0.033
2026-05-09 VA "Legends" T & F Youth Invite 200m 36.09 9th · 1st on team -0.033
2026-05-09 VA "Legends" T & F Youth Invite 800m 3:24.85 4th · 1st on team 109.5 -0.033 PR R SR RSR
2026-05-03 Queen Harrison Track Classic - -Youth Section lj 8' 4" -0.033
2026-05-03 Queen Harrison Track Classic - -Youth Section 50m 8.2 1st · 1st on team -0.033 ★PR SR
2026-05-03 Queen Harrison Track Classic - -Youth Section 400m 1:27.88 3rd · 2nd on team -0.033
2026-03-06 AAU Indoor National Championship 400m 1:22.37 8th · 1st on team -0.035 ★PR SR
2026-02-28 BWSP Queens and Kings Championships 55m 9.18 8th · 4th on team -0.024 ★PR SR
2026-02-28 BWSP Queens and Kings Championships 55m 9.31 9th · 5th on team -0.024
2026-02-28 BWSP Queens and Kings Championships 200m 33.39 2nd · 1st on team -0.024 ★PR SR
2026-02-22 3rd Annual HRH Winter Storm Classic 200m 34.78 6th · 3rd on team -0.024
2026-02-22 3rd Annual HRH Winter Storm Classic 400m 1:26.95 7th · 1st on team -0.024
2026-01-17 BWSP Queens and Kings - Meet 2 lj 8' 3.50" -0.024
2026-01-17 BWSP Queens and Kings - Meet 2 55m 9.57 13th · 6th on team -0.024
2026-01-17 BWSP Queens and Kings - Meet 2 400m 1:23.11 1st · 1st on team -0.024 PR SR
2026-01-17 BWSP Queens and Kings - Meet 2 55m 9.2 9th · 5th on team -0.024 PR SR
2026-01-11 Lighting Track Classic lj 2.60m -0.035
2026-01-11 Lighting Track Classic 200m 33.61 2nd · 1st on team -0.035 PR SR
2026-01-11 Lighting Track Classic 60m 9.82 8th · 5th on team -0.035 ★PR SR
2026-01-11 Lighting Track Classic 60m 9.95 10th · 6th on team -0.035
2026-01-03 BWSP Queens and Kings - Meet 1 400m 1:33.13 3rd · 1st on team -0.024
2026-01-03 BWSP Queens and Kings - Meet 1 55m 9.46 9th · 5th on team -0.024
2026-01-03 BWSP Queens and Kings - Meet 1 55m 9.49 10th · 6th on team -0.024
2026-01-03 BWSP Queens and Kings - Meet 1 200m 37.22 4th · 2nd on team -0.024
2025-12-20 2025 Howard White Holiday Track Classic 400m 1:29.85 1st · 1st on team -0.024 PR SR
2025-12-20 2025 Howard White Holiday Track Classic 200m 34.51 3rd · 2nd on team -0.024 PR SR
2025-12-20 2025 Howard White Holiday Track Classic 55m 9.25 5th · 2nd on team -0.024 PR SR
2025-12-20 2025 Howard White Holiday Track Classic 55m 9.27 6th · 3rd on team -0.024